CDT,Max TemperatureF,Mean TemperatureF,Min TemperatureF,Max Dew PointF,MeanDew PointF,Min DewpointF,Max Humidity, Mean Humidity, Min Humidity, Max Sea Level PressureIn, Mean Sea Level PressureIn, Min Sea Level PressureIn, Max VisibilityMiles, Mean VisibilityMiles, Min VisibilityMiles, Max Wind SpeedMPH, Mean Wind SpeedMPH, Max Gust SpeedMPH,PrecipitationIn, CloudCover, Events, WindDirDegrees
2013-3-1,42,31,19,27,23,17,92,74,55,30.40,30.31,30.22,10,7,1,12,3,14,0.01,5,Snow,72
2013-3-2,60,42,24,35,30,21,92,64,36,30.32,30.12,29.94,10,10,10,21,8,26,0.00,3,,281
2013-3-3,63,48,32,39,33,30,96,63,30,29.94,29.69,29.53,10,9,2,16,5,20,0.00,2,,223
2013-3-4,45,33,20,34,20,8,100,66,31,30.18,29.87,29.51,10,9,2,38,20,51,T,5,Snow,310
2013-3-5,33,25,16,13,10,8,80,60,39,30.46,30.35,30.09,10,10,6,37,16,46,T,3,Snow,337
2013-3-6,46,31,15,22,17,11,88,61,33,30.42,30.22,29.98,10,10,10,28,14,35,0.00,0,,151
2013-3-7,65,45,25,29,25,20,88,58,27,30.13,30.02,29.92,10,10,10,18,8,22,0.00,0,,178
2013-3-8,51,39,27,32,28,24,100,73,46,30.14,30.01,29.83,10,6,0,20,8,23,0.00,4,Fog,49
2013-3-9,34,30,26,30,27,22,100,91,82,30.10,29.80,29.68,9,2,0,29,17,41,1.10,8,Fog-Rain-Snow-Thunderstorm,356
2013-3-10,27,17,6,19,12,4,92,78,63,30.27,30.17,30.10,10,7,1,28,14,36,T,5,Snow,338
2013-3-11,45,24,3,31,16,1,88,69,49,30.17,30.02,29.85,10,10,9,20,9,25,0.00,1,,288
2013-3-12,38,29,19,19,13,8,77,55,32,30.39,30.28,30.14,10,10,10,29,12,35,0.00,0,,314
2013-3-13,56,37,17,36,24,12,89,66,43,30.38,30.24,30.05,10,10,10,15,5,18,0.00,2,,201
2013-3-14,67,51,34,39,34,30,89,58,26,30.22,30.10,29.97,10,10,10,14,7,17,0.00,0,,257
2013-3-15,64,46,27,40,35,31,89,63,37,29.98,29.86,29.79,10,10,10,23,7,28,0.00,0,,315
2013-3-16,30,26,22,27,23,19,100,82,63,30.22,30.10,30.03,10,5,1,17,8,21,0.06,8,Snow,58
2013-3-17,41,33,25,34,26,19,89,77,64,30.12,29.79,29.50,10,9,4,31,20,43,0.02,8,Rain-Snow,172
2013-3-18,37,29,20,22,11,4,77,51,24,30.09,29.96,29.78,10,10,10,28,15,37,0.00,3,,315
2013-3-19,45,30,14,22,13,3,77,51,24,30.45,30.19,30.03,10,10,10,24,13,33,0.00,1,,316
2013-3-20,47,29,10,14,9,4,84,54,23,30.47,30.26,29.99,10,10,10,21,9,25,0.00,1,,204
2013-3-21,43,34,25,26,20,11,100,70,39,29.96,29.85,29.77,10,7,0,29,17,35,0.14,6,Fog-Snow,127
2013-3-22,34,29,24,27,23,21,92,82,72,30.07,29.89,29.82,10,4,1,16,6,20,0.09,8,Snow,93
2013-3-23,28,24,19,25,17,12,92,75,57,30.32,30.17,30.00,10,9,6,26,14,35,T,7,,352
2013-3-24,26,18,10,18,13,6,84,69,54,30.33,30.22,30.10,10,7,2,28,15,36,0.02,5,Snow,327
2013-3-25,31,23,14,16,12,9,84,64,43,30.44,30.35,30.23,10,7,2,21,10,26,0.02,6,Snow,332
2013-3-26,53,31,9,22,14,5,92,57,21,30.40,30.21,30.03,10,10,10,23,8,30,0.00,0,,143
2013-3-27,57,38,18,26,21,16,91,56,20,30.18,30.15,30.10,10,10,9,12,4,14,T,0,,174
2013-3-28,66,49,31,38,30,20,86,55,24,30.16,30.11,30.03,,,,21,8,31,0.09,3,Rain,173
2013-3-29,71,50,29,48,35,26,92,60,27,30.14,30.05,29.95,,,,29,7,35,0.02,3,,192
2013-3-30,63,49,34,39,35,27,100,64,27,30.07,30.02,29.99,,,,24,10,32,T,5,Rain,296
2013-3-31,57,43,29,34,27,16,92,59,26,30.25,30.09,29.95,,,,25,10,32,0.00,4,,10